sensor_id;sensor_type;location;lat;lon;timestamp;pressure;altitude;pressure_sealevel;temperature;humidity
45071;BME280;30836;48.906;9.140;2023-03-13T00:00:25;981.51;;;16.16;42.56
45071;BME280;30836;48.906;9.140;2023-03-13T00:01:26;981.51;;;16.15;42.62
45071;BME280;30836;48.906;9.140;2023-03-13T00:02:29;981.51;;;16.16;42.51
45071;BME280;30836;48.906;9.140;2023-03-13T00:03:30;981.55;;;16.17;42.51
45071;BME280;30836;48.906;9.140;2023-03-13T00:04:30;981.55;;;16.16;42.66
45071;BME280;30836;48.906;9.140;2023-03-13T00:05:33;981.55;;;16.15;42.62
45071;BME280;30836;48.906;9.140;2023-03-13T00:06:35;981.55;;;16.17;42.60
45071;BME280;30836;48.906;9.140;2023-03-13T00:07:38;981.55;;;16.19;42.61
45071;BME280;30836;48.906;9.140;2023-03-13T00:08:38;981.53;;;16.20;42.54
45071;BME280;30836;48.906;9.140;2023-03-13T00:08:49;981.53;;;16.22;42.54
45071;BME280;30836;48.906;9.140;2023-03-13T00:09:49;981.55;;;16.24;42.46
45071;BME280;30836;48.906;9.140;2023-03-13T00:10:50;981.53;;;16.25;42.50
45071;BME280;30836;48.906;9.140;2023-03-13T00:11:50;981.51;;;16.23;42.58
45071;BME280;30836;48.906;9.140;2023-03-13T00:12:51;981.45;;;16.22;42.58
45071;BME280;30836;48.906;9.140;2023-03-13T00:13:55;981.45;;;16.22;42.63
45071;BME280;30836;48.906;9.140;2023-03-13T00:14:57;981.43;;;16.19;42.79
45071;BME280;30836;48.906;9.140;2023-03-13T00:17:07;981.43;;;16.20;42.52
45071;BME280;30836;48.906;9.140;2023-03-13T00:18:07;981.43;;;16.33;42.19
45071;BME280;30836;48.906;9.140;2023-03-13T00:19:08;981.37;;;16.51;41.71
45071;BME280;30836;48.906;9.140;2023-03-13T00:20:09;981.41;;;16.69;41.37
45071;BME280;30836;48.906;9.140;2023-03-13T00:21:09;981.39;;;16.83;41.25
45071;BME280;30836;48.906;9.140;2023-03-13T00:22:10;981.39;;;16.93;41.09
45071;BME280;30836;48.906;9.140;2023-03-13T00:23:10;981.39;;;17.03;40.90
45071;BME280;30836;48.906;9.140;2023-03-13T00:24:11;981.41;;;17.15;40.61
45071;BME280;30836;48.906;9.140;2023-03-13T00:25:11;981.39;;;17.26;40.43
45071;BME280;30836;48.906;9.140;2023-03-13T00:26:13;981.35;;;17.36;40.27
45071;BME280;30836;48.906;9.140;2023-03-13T00:27:15;981.37;;;17.45;40.08
45071;BME280;30836;48.906;9.140;2023-03-13T00:28:16;981.37;;;17.52;39.99
45071;BME280;30836;48.906;9.140;2023-03-13T00:29:16;981.37;;;17.57;39.87
45071;BME280;30836;48.906;9.140;2023-03-13T00:30:16;981.33;;;17.59;40.01
45071;BME280;30836;48.906;9.140;2023-03-13T00:31:21;981.33;;;17.59;39.92
45071;BME280;30836;48.906;9.140;2023-03-13T00:32:23;981.31;;;17.62;39.78
45071;BME280;30836;48.906;9.140;2023-03-13T00:33:24;981.31;;;17.63;39.72
45071;BME280;30836;48.906;9.140;2023-03-13T00:34:24;981.28;;;17.63;39.82
45071;BME280;30836;48.906;9.140;2023-03-13T00:35:25;981.28;;;17.65;39.82
45071;BME280;30836;48.906;9.140;2023-03-13T00:36:26;981.26;;;17.67;39.74
45071;BME280;30836;48.906;9.140;2023-03-13T00:37:28;981.26;;;17.68;39.64
45071;BME280;30836;48.906;9.140;2023-03-13T00:38:31;981.24;;;17.69;39.63
45071;BME280;30836;48.906;9.140;2023-03-13T00:39:32;981.24;;;17.68;39.69
45071;BME280;30836;48.906;9.140;2023-03-13T00:40:32;981.24;;;17.64;39.83
45071;BME280;30836;48.906;9.140;2023-03-13T00:41:33;981.20;;;17.58;39.92
45071;BME280;30836;48.906;9.140;2023-03-13T00:42:35;981.20;;;17.54;39.97
45071;BME280;30836;48.906;9.140;2023-03-13T00:43:36;981.18;;;17.50;40.06
45071;BME280;30836;48.906;9.140;2023-03-13T00:44:36;981.18;;;17.47;40.12
45071;BME280;30836;48.906;9.140;2023-03-13T00:45:36;981.14;;;17.45;40.17
45071;BME280;30836;48.906;9.140;2023-03-13T00:46:37;981.10;;;17.44;40.23
45071;BME280;30836;48.906;9.140;2023-03-13T00:47:37;981.10;;;17.45;40.13
45071;BME280;30836;48.906;9.140;2023-03-13T00:48:38;981.10;;;17.46;40.16
45071;BME280;30836;48.906;9.140;2023-03-13T00:49:39;981.06;;;17.44;40.17
45071;BME280;30836;48.906;9.140;2023-03-13T00:50:39;981.06;;;17.42;40.20
45071;BME280;30836;48.906;9.140;2023-03-13T00:51:40;981.06;;;17.41;40.22
45071;BME280;30836;48.906;9.140;2023-03-13T00:52:40;981.04;;;17.38;40.40
45071;BME280;30836;48.906;9.140;2023-03-13T00:53:41;981.06;;;17.37;40.28
45071;BME280;30836;48.906;9.140;2023-03-13T00:54:41;981.04;;;17.37;40.26
45071;BME280;30836;48.906;9.140;2023-03-13T00:56:50;981.00;;;17.32;40.47
45071;BME280;30836;48.906;9.140;2023-03-13T00:57:51;980.98;;;17.24;40.64
45071;BME280;30836;48.906;9.140;2023-03-13T00:58:51;980.96;;;17.16;40.93
45071;BME280;30836;48.906;9.140;2023-03-13T00:59:52;980.94;;;17.12;40.78
45071;BME280;30836;48.906;9.140;2023-03-13T01:00:52;980.96;;;17.11;40.83
45071;BME280;30836;48.906;9.140;2023-03-13T01:01:53;980.94;;;17.08;40.82
45071;BME280;30836;48.906;9.140;2023-03-13T01:02:54;980.94;;;17.06;40.82
45071;BME280;30836;48.906;9.140;2023-03-13T01:03:55;980.92;;;17.07;40.86
45071;BME280;30836;48.906;9.140;2023-03-13T01:05:01;980.88;;;16.97;41.35
45071;BME280;30836;48.906;9.140;2023-03-13T01:06:02;980.86;;;16.81;41.57
45071;BME280;30836;48.906;9.140;2023-03-13T01:07:04;980.88;;;16.77;41.51
45071;BME280;30836;48.906;9.140;2023-03-13T01:08:04;980.84;;;16.80;41.45
45071;BME280;30836;48.906;9.140;2023-03-13T01:09:05;980.84;;;16.85;41.27
45071;BME280;30836;48.906;9.140;2023-03-13T01:10:06;980.80;;;16.92;41.19
45071;BME280;30836;48.906;9.140;2023-03-13T01:11:08;980.79;;;16.95;41.15
45071;BME280;30836;48.906;9.140;2023-03-13T01:12:10;980.77;;;16.93;41.22
45071;BME280;30836;48.906;9.140;2023-03-13T01:13:11;980.77;;;16.87;41.47
45071;BME280;30836;48.906;9.140;2023-03-13T01:14:12;980.75;;;16.87;41.28
45071;BME280;30836;48.906;9.140;2023-03-13T01:15:15;980.71;;;16.91;41.20
45071;BME280;30836;48.906;9.140;2023-03-13T01:16:16;980.69;;;16.93;41.28
45071;BME280;30836;48.906;9.140;2023-03-13T01:16:29;980.65;;;16.86;41.30
45071;BME280;30836;48.906;9.140;2023-03-13T01:17:31;980.67;;;16.83;41.44
45071;BME280;30836;48.906;9.140;2023-03-13T01:18:32;980.67;;;16.73;41.78
45071;BME280;30836;48.906;9.140;2023-03-13T01:19:34;980.63;;;16.59;42.17
45071;BME280;30836;48.906;9.140;2023-03-13T01:20:34;980.61;;;16.44;42.40
45071;BME280;30836;48.906;9.140;2023-03-13T01:21:35;980.61;;;16.35;42.53
45071;BME280;30836;48.906;9.140;2023-03-13T01:22:35;980.57;;;16.25;42.80
45071;BME280;30836;48.906;9.140;2023-03-13T01:23:36;980.59;;;16.15;42.95
45071;BME280;30836;48.906;9.140;2023-03-13T01:24:36;980.55;;;16.13;42.89
45071;BME280;30836;48.906;9.140;2023-03-13T01:25:37;980.53;;;16.08;42.97
45071;BME280;30836;48.906;9.140;2023-03-13T01:26:38;980.51;;;15.97;43.43
45071;BME280;30836;48.906;9.140;2023-03-13T01:27:39;980.49;;;15.90;43.46
45071;BME280;30836;48.906;9.140;2023-03-13T01:28:39;980.51;;;15.94;43.24
45071;BME280;30836;48.906;9.140;2023-03-13T01:29:39;980.47;;;16.05;42.86
45071;BME280;30836;48.906;9.140;2023-03-13T01:30:40;980.47;;;16.18;42.75
45071;BME280;30836;48.906;9.140;2023-03-13T01:31:40;980.47;;;16.29;42.40
45071;BME280;30836;48.906;9.140;2023-03-13T01:32:41;980.41;;;16.38;42.33
45071;BME280;30836;48.906;9.140;2023-03-13T01:33:41;980.39;;;16.35;42.60
45071;BME280;30836;48.906;9.140;2023-03-13T01:34:42;980.39;;;16.29;42.73
45071;BME280;30836;48.906;9.140;2023-03-13T01:35:43;980.37;;;16.22;42.99
45071;BME280;30836;48.906;9.140;2023-03-13T01:36:43;980.35;;;16.12;43.13
45071;BME280;30836;48.906;9.140;2023-03-13T01:37:44;980.35;;;16.06;43.18
45071;BME280;30836;48.906;9.140;2023-03-13T01:38:48;980.33;;;16.00;43.53
45071;BME280;30836;48.906;9.140;2023-03-13T01:39:50;980.33;;;15.93;43.51
45071;BME280;30836;48.906;9.140;2023-03-13T01:40:50;980.33;;;15.89;43.60
45071;BME280;30836;48.906;9.140;2023-03-13T01:41:51;980.31;;;15.88;43.57
45071;BME280;30836;48.906;9.140;2023-03-13T01:42:52;980.25;;;15.86;43.72
45071;BME280;30836;48.906;9.140;2023-03-13T01:43:55;980.25;;;15.79;43.88
45071;BME280;30836;48.906;9.140;2023-03-13T01:44:56;980.25;;;15.76;43.85
45071;BME280;30836;48.906;9.140;2023-03-13T01:47:02;980.22;;;15.74;44.02
45071;BME280;30836;48.906;9.140;2023-03-13T01:48:03;980.20;;;15.69;44.20
45071;BME280;30836;48.906;9.140;2023-03-13T01:50:07;980.16;;;15.67;44.09
45071;BME280;30836;48.906;9.140;2023-03-13T01:51:10;980.16;;;15.69;44.04
45071;BME280;30836;48.906;9.140;2023-03-13T01:52:20;980.12;;;15.76;43.80
45071;BME280;30836;48.906;9.140;2023-03-13T01:53:24;980.10;;;15.81;43.81
45071;BME280;30836;48.906;9.140;2023-03-13T01:54:27;980.12;;;15.80;44.01
45071;BME280;30836;48.906;9.140;2023-03-13T01:55:31;980.08;;;15.77;44.03
45071;BME280;30836;48.906;9.140;2023-03-13T01:56:35;980.10;;;15.75;44.09
45071;BME280;30836;48.906;9.140;2023-03-13T01:57:40;980.10;;;15.73;44.09
45071;BME280;30836;48.906;9.140;2023-03-13T01:58:44;980.04;;;15.75;43.99
45071;BME280;30836;48.906;9.140;2023-03-13T01:59:48;980.00;;;15.82;43.85
45071;BME280;30836;48.906;9.140;2023-03-13T02:00:51;979.98;;;15.92;43.43
45071;BME280;30836;48.906;9.140;2023-03-13T02:01:52;979.96;;;16.00;43.35
45071;BME280;30836;48.906;9.140;2023-03-13T02:02:56;979.96;;;16.07;43.25
45071;BME280;30836;48.906;9.140;2023-03-13T02:04:00;979.94;;;16.13;43.23
45071;BME280;30836;48.906;9.140;2023-03-13T02:05:01;979.88;;;16.10;43.43
45071;BME280;30836;48.906;9.140;2023-03-13T02:06:03;979.84;;;16.03;43.61
45071;BME280;30836;48.906;9.140;2023-03-13T02:07:08;979.84;;;16.01;43.35
45071;BME280;30836;48.906;9.140;2023-03-13T02:08:17;979.80;;;16.11;42.98
45071;BME280;30836;48.906;9.140;2023-03-13T02:09:23;979.82;;;16.29;42.52
45071;BME280;30836;48.906;9.140;2023-03-13T02:10:26;979.80;;;16.45;42.34
45071;BME280;30836;48.906;9.140;2023-03-13T02:12:38;979.82;;;16.64;41.92
45071;BME280;30836;48.906;9.140;2023-03-13T02:13:39;979.77;;;16.65;42.20
45071;BME280;30836;48.906;9.140;2023-03-13T02:14:42;979.77;;;16.62;42.05
45071;BME280;30836;48.906;9.140;2023-03-13T02:15:45;979.80;;;16.65;41.94
45071;BME280;30836;48.906;9.140;2023-03-13T02:16:46;979.77;;;16.70;41.76
45071;BME280;30836;48.906;9.140;2023-03-13T02:17:47;979.77;;;16.77;41.68
45071;BME280;30836;48.906;9.140;2023-03-13T02:18:49;979.73;;;16.83;41.55
45071;BME280;30836;48.906;9.140;2023-03-13T02:19:50;979.73;;;16.90;41.35
45071;BME280;30836;48.906;9.140;2023-03-13T02:20:51;979.67;;;16.96;41.25
45071;BME280;30836;48.906;9.140;2023-03-13T02:23:09;979.69;;;17.05;41.21
45071;BME280;30836;48.906;9.140;2023-03-13T02:26:22;979.75;;;17.19;40.88
45071;BME280;30836;48.906;9.140;2023-03-13T02:27:23;979.75;;;17.20;40.88
45071;BME280;30836;48.906;9.140;2023-03-13T02:28:27;979.73;;;17.18;40.82
45071;BME280;30836;48.906;9.140;2023-03-13T02:29:30;979.77;;;17.18;40.86
45071;BME280;30836;48.906;9.140;2023-03-13T02:30:32;979.73;;;17.20;40.68
45071;BME280;30836;48.906;9.140;2023-03-13T02:31:33;979.71;;;17.24;40.69
45071;BME280;30836;48.906;9.140;2023-03-13T02:32:33;979.69;;;17.24;40.79
45071;BME280;30836;48.906;9.140;2023-03-13T02:33:35;979.63;;;17.20;40.81
45071;BME280;30836;48.906;9.140;2023-03-13T02:34:39;979.63;;;17.19;40.74
45071;BME280;30836;48.906;9.140;2023-03-13T02:35:42;979.61;;;17.24;40.62
45071;BME280;30836;48.906;9.140;2023-03-13T02:36:43;979.59;;;17.28;40.53
45071;BME280;30836;48.906;9.140;2023-03-13T02:38:04;979.55;;;17.27;40.67
45071;BME280;30836;48.906;9.140;2023-03-13T02:38:56;979.47;;;17.23;40.72
45071;BME280;30836;48.906;9.140;2023-03-13T02:40:02;979.45;;;17.25;40.57
45071;BME280;30836;48.906;9.140;2023-03-13T02:41:06;979.45;;;17.33;40.40
45071;BME280;30836;48.906;9.140;2023-03-13T02:42:07;979.39;;;17.39;40.26
45071;BME280;30836;48.906;9.140;2023-03-13T02:43:13;979.39;;;17.42;40.28
45071;BME280;30836;48.906;9.140;2023-03-13T02:44:23;979.37;;;17.47;40.08
45071;BME280;30836;48.906;9.140;2023-03-13T02:45:24;979.31;;;17.55;39.94
45071;BME280;30836;48.906;9.140;2023-03-13T02:46:24;979.31;;;17.59;39.97
45071;BME280;30836;48.906;9.140;2023-03-13T02:47:25;979.29;;;17.58;40.08
45071;BME280;30836;48.906;9.140;2023-03-13T02:48:29;979.27;;;17.56;39.97
45071;BME280;30836;48.906;9.140;2023-03-13T02:49:31;979.25;;;17.56;39.97
45071;BME280;30836;48.906;9.140;2023-03-13T02:50:31;979.23;;;17.56;40.01
45071;BME280;30836;48.906;9.140;2023-03-13T02:51:37;979.23;;;17.58;39.91
45071;BME280;30836;48.906;9.140;2023-03-13T02:52:45;979.21;;;17.60;39.87
45071;BME280;30836;48.906;9.140;2023-03-13T02:53:51;979.17;;;17.55;40.38
45071;BME280;30836;48.906;9.140;2023-03-13T02:54:56;979.13;;;17.46;40.31
45071;BME280;30836;48.906;9.140;2023-03-13T02:55:59;979.15;;;17.44;40.38
45071;BME280;30836;48.906;9.140;2023-03-13T02:57:01;979.11;;;17.42;40.43
45071;BME280;30836;48.906;9.140;2023-03-13T02:58:03;979.09;;;17.43;40.41
45071;BME280;30836;48.906;9.140;2023-03-13T02:59:03;979.05;;;17.48;40.44
45071;BME280;30836;48.906;9.140;2023-03-13T03:00:05;979.02;;;17.54;40.34
45071;BME280;30836;48.906;9.140;2023-03-13T03:01:06;978.98;;;17.57;40.39
45071;BME280;30836;48.906;9.140;2023-03-13T03:02:07;978.98;;;17.60;40.44
45071;BME280;30836;48.906;9.140;2023-03-13T03:03:07;978.98;;;17.64;40.39
45071;BME280;30836;48.906;9.140;2023-03-13T03:04:07;978.96;;;17.68;40.31
45071;BME280;30836;48.906;9.140;2023-03-13T03:05:09;978.96;;;17.72;40.38
45071;BME280;30836;48.906;9.140;2023-03-13T03:06:10;978.92;;;17.76;40.38
45071;BME280;30836;48.906;9.140;2023-03-13T03:07:10;978.90;;;17.80;40.31
45071;BME280;30836;48.906;9.140;2023-03-13T03:08:11;978.92;;;17.83;40.21
45071;BME280;30836;48.906;9.140;2023-03-13T03:09:11;978.94;;;17.85;40.14
45071;BME280;30836;48.906;9.140;2023-03-13T03:10:12;978.92;;;17.88;40.14
45071;BME280;30836;48.906;9.140;2023-03-13T03:11:12;978.90;;;17.92;40.06
45071;BME280;30836;48.906;9.140;2023-03-13T03:12:13;978.90;;;17.95;40.19
45071;BME280;30836;48.906;9.140;2023-03-13T03:13:13;978.90;;;17.95;40.31
45071;BME280;30836;48.906;9.140;2023-03-13T03:14:14;978.88;;;17.96;40.29
45071;BME280;30836;48.906;9.140;2023-03-13T03:15:15;978.88;;;17.98;40.36
45071;BME280;30836;48.906;9.140;2023-03-13T03:16:15;978.86;;;18.02;40.29
45071;BME280;30836;48.906;9.140;2023-03-13T03:17:16;978.86;;;18.06;40.15
45071;BME280;30836;48.906;9.140;2023-03-13T03:18:16;978.86;;;18.09;40.06
45071;BME280;30836;48.906;9.140;2023-03-13T03:19:16;978.86;;;18.11;40.05
45071;BME280;30836;48.906;9.140;2023-03-13T03:20:17;978.86;;;18.13;40.10
45071;BME280;30836;48.906;9.140;2023-03-13T03:21:17;978.84;;;18.10;40.50
45071;BME280;30836;48.906;9.140;2023-03-13T03:22:18;978.86;;;18.03;40.65
45071;BME280;30836;48.906;9.140;2023-03-13T03:23:18;978.84;;;18.03;40.65
45071;BME280;30836;48.906;9.140;2023-03-13T03:24:19;978.84;;;18.07;40.55
45071;BME280;30836;48.906;9.140;2023-03-13T03:25:19;978.80;;;18.11;40.61
45071;BME280;30836;48.906;9.140;2023-03-13T03:26:19;978.84;;;18.15;40.50
45071;BME280;30836;48.906;9.140;2023-03-13T03:27:20;978.82;;;18.19;40.58
45071;BME280;30836;48.906;9.140;2023-03-13T03:28:20;978.82;;;18.20;40.78
45071;BME280;30836;48.906;9.140;2023-03-13T03:29:21;978.82;;;18.21;40.79
45071;BME280;30836;48.906;9.140;2023-03-13T03:30:21;978.86;;;18.22;40.92
45071;BME280;30836;48.906;9.140;2023-03-13T03:31:22;978.86;;;18.22;41.07
45071;BME280;30836;48.906;9.140;2023-03-13T03:32:22;978.84;;;18.24;41.04
45071;BME280;30836;48.906;9.140;2023-03-13T03:33:23;978.82;;;18.28;40.95
45071;BME280;30836;48.906;9.140;2023-03-13T03:34:23;978.84;;;18.31;40.88
45071;BME280;30836;48.906;9.140;2023-03-13T03:35:24;978.84;;;18.34;41.02
45071;BME280;30836;48.906;9.140;2023-03-13T03:36:24;978.80;;;18.35;41.16
45071;BME280;30836;48.906;9.140;2023-03-13T03:37:25;978.78;;;18.37;41.24
45071;BME280;30836;48.906;9.140;2023-03-13T03:38:25;978.74;;;18.41;41.18
45071;BME280;30836;48.906;9.140;2023-03-13T03:39:26;978.74;;;18.44;41.27
45071;BME280;30836;48.906;9.140;2023-03-13T03:40:26;978.72;;;18.46;41.26
45071;BME280;30836;48.906;9.140;2023-03-13T03:41:27;978.70;;;18.48;41.22
45071;BME280;30836;48.906;9.140;2023-03-13T03:42:27;978.72;;;18.51;41.22
45071;BME280;30836;48.906;9.140;2023-03-13T03:43:27;978.74;;;18.50;41.48
45071;BME280;30836;48.906;9.140;2023-03-13T03:44:28;978.72;;;18.42;41.86
45071;BME280;30836;48.906;9.140;2023-03-13T03:45:28;978.70;;;18.28;42.28
45071;BME280;30836;48.906;9.140;2023-03-13T03:46:29;978.68;;;18.11;42.67
45071;BME280;30836;48.906;9.140;2023-03-13T03:47:29;978.66;;;17.95;42.83
45071;BME280;30836;48.906;9.140;2023-03-13T03:48:30;978.66;;;17.83;43.10
45071;BME280;30836;48.906;9.140;2023-03-13T03:49:30;978.58;;;17.73;43.23
45071;BME280;30836;48.906;9.140;2023-03-13T03:50:31;978.58;;;17.68;43.32
45071;BME280;30836;48.906;9.140;2023-03-13T03:51:31;978.60;;;17.63;43.48
45071;BME280;30836;48.906;9.140;2023-03-13T03:52:32;978.58;;;17.58;43.59
45071;BME280;30836;48.906;9.140;2023-03-13T03:53:32;978.62;;;17.54;43.62
45071;BME280;30836;48.906;9.140;2023-03-13T03:54:33;978.64;;;17.51;43.65
45071;BME280;30836;48.906;9.140;2023-03-13T03:55:33;978.64;;;17.50;43.67
45071;BME280;30836;48.906;9.140;2023-03-13T03:56:34;978.64;;;17.51;43.70
45071;BME280;30836;48.906;9.140;2023-03-13T03:57:34;978.60;;;17.51;43.59
45071;BME280;30836;48.906;9.140;2023-03-13T03:58:35;978.60;;;17.51;43.61
45071;BME280;30836;48.906;9.140;2023-03-13T03:59:35;978.60;;;17.50;43.56
45071;BME280;30836;48.906;9.140;2023-03-13T04:00:36;978.58;;;17.48;43.56
45071;BME280;30836;48.906;9.140;2023-03-13T04:01:36;978.53;;;17.45;43.62
45071;BME280;30836;48.906;9.140;2023-03-13T04:02:37;978.54;;;17.43;43.67
45071;BME280;30836;48.906;9.140;2023-03-13T04:03:37;978.49;;;17.42;43.74
45071;BME280;30836;48.906;9.140;2023-03-13T04:04:38;978.49;;;17.42;43.74
45071;BME280;30836;48.906;9.140;2023-03-13T04:05:38;978.47;;;17.43;43.77
45071;BME280;30836;48.906;9.140;2023-03-13T04:06:39;978.49;;;17.47;43.71
45071;BME280;30836;48.906;9.140;2023-03-13T04:07:40;978.49;;;17.47;43.70
45071;BME280;30836;48.906;9.140;2023-03-13T04:08:40;978.49;;;17.46;43.69
45071;BME280;30836;48.906;9.140;2023-03-13T04:09:40;978.47;;;17.46;43.65
45071;BME280;30836;48.906;9.140;2023-03-13T04:10:41;978.45;;;17.46;43.71
45071;BME280;30836;48.906;9.140;2023-03-13T04:11:41;978.41;;;17.46;43.75
45071;BME280;30836;48.906;9.140;2023-03-13T04:12:42;978.43;;;17.47;43.81
45071;BME280;30836;48.906;9.140;2023-03-13T04:13:42;978.43;;;17.49;43.77
45071;BME280;30836;48.906;9.140;2023-03-13T04:14:43;978.41;;;17.50;43.70
45071;BME280;30836;48.906;9.140;2023-03-13T04:15:43;978.43;;;17.51;43.74
45071;BME280;30836;48.906;9.140;2023-03-13T04:16:44;978.45;;;17.51;43.95
45071;BME280;30836;48.906;9.140;2023-03-13T04:17:44;978.41;;;17.49;44.05
45071;BME280;30836;48.906;9.140;2023-03-13T04:18:45;978.45;;;17.49;44.04
45071;BME280;30836;48.906;9.140;2023-03-13T04:19:45;978.41;;;17.50;43.95
45071;BME280;30836;48.906;9.140;2023-03-13T04:20:46;978.39;;;17.52;43.97
45071;BME280;30836;48.906;9.140;2023-03-13T04:21:46;978.37;;;17.50;44.24
45071;BME280;30836;48.906;9.140;2023-03-13T04:22:46;978.35;;;17.47;44.29
45071;BME280;30836;48.906;9.140;2023-03-13T04:23:47;978.31;;;17.47;44.27
45071;BME280;30836;48.906;9.140;2023-03-13T04:24:47;978.27;;;17.47;44.46
45071;BME280;30836;48.906;9.140;2023-03-13T04:25:48;978.23;;;17.46;44.57
45071;BME280;30836;48.906;9.140;2023-03-13T04:26:48;978.23;;;17.42;45.04
45071;BME280;30836;48.906;9.140;2023-03-13T04:27:49;978.21;;;17.34;45.38
45071;BME280;30836;48.906;9.140;2023-03-13T04:28:49;978.19;;;17.26;45.56
45071;BME280;30836;48.906;9.140;2023-03-13T04:29:50;978.19;;;17.21;46.09
45071;BME280;30836;48.906;9.140;2023-03-13T04:30:50;978.13;;;17.16;46.46
45071;BME280;30836;48.906;9.140;2023-03-13T04:31:51;978.11;;;17.06;47.30
45071;BME280;30836;48.906;9.140;2023-03-13T04:32:51;978.15;;;16.89;48.44
45071;BME280;30836;48.906;9.140;2023-03-13T04:33:52;978.15;;;16.70;49.28
45071;BME280;30836;48.906;9.140;2023-03-13T04:34:52;978.15;;;16.51;49.99
45071;BME280;30836;48.906;9.140;2023-03-13T04:35:53;978.17;;;16.36;50.38
45071;BME280;30836;48.906;9.140;2023-03-13T04:36:53;978.19;;;16.35;50.28
45071;BME280;30836;48.906;9.140;2023-03-13T04:37:53;978.19;;;16.38;50.40
45071;BME280;30836;48.906;9.140;2023-03-13T04:38:54;978.23;;;16.32;51.11
45071;BME280;30836;48.906;9.140;2023-03-13T04:39:54;978.21;;;16.23;51.44
45071;BME280;30836;48.906;9.140;2023-03-13T04:40:55;978.21;;;16.21;51.07
45071;BME280;30836;48.906;9.140;2023-03-13T04:41:55;978.27;;;16.14;51.92
45071;BME280;30836;48.906;9.140;2023-03-13T04:42:56;978.33;;;15.99;52.21
45071;BME280;30836;48.906;9.140;2023-03-13T04:43:56;978.23;;;15.93;52.26
45071;BME280;30836;48.906;9.140;2023-03-13T04:44:56;978.21;;;15.91;52.42
45071;BME280;30836;48.906;9.140;2023-03-13T04:45:57;978.23;;;15.97;52.10
45071;BME280;30836;48.906;9.140;2023-03-13T04:46:57;978.19;;;16.07;51.69
45071;BME280;30836;48.906;9.140;2023-03-13T04:47:58;978.19;;;16.18;51.60
45071;BME280;30836;48.906;9.140;2023-03-13T04:48:58;978.13;;;16.23;51.83
45071;BME280;30836;48.906;9.140;2023-03-13T04:49:58;978.17;;;16.17;52.27
45071;BME280;30836;48.906;9.140;2023-03-13T04:50:59;978.17;;;16.07;52.38
45071;BME280;30836;48.906;9.140;2023-03-13T04:51:59;978.21;;;16.03;52.34
45071;BME280;30836;48.906;9.140;2023-03-13T04:53:00;978.17;;;16.03;52.48
45071;BME280;30836;48.906;9.140;2023-03-13T04:54:01;978.25;;;16.10;52.38
45071;BME280;30836;48.906;9.140;2023-03-13T04:55:02;978.17;;;16.17;52.25
45071;BME280;30836;48.906;9.140;2023-03-13T04:56:02;978.17;;;16.21;52.07
45071;BME280;30836;48.906;9.140;2023-03-13T04:57:03;978.11;;;16.25;52.22
45071;BME280;30836;48.906;9.140;2023-03-13T04:58:04;978.09;;;16.31;51.90
45071;BME280;30836;48.906;9.140;2023-03-13T04:59:04;978.09;;;16.52;50.87
45071;BME280;30836;48.906;9.140;2023-03-13T05:00:05;978.19;;;16.74;50.69
45071;BME280;30836;48.906;9.140;2023-03-13T05:01:06;978.11;;;16.83;50.56
45071;BME280;30836;48.906;9.140;2023-03-13T05:02:09;978.23;;;16.89;50.56
45071;BME280;30836;48.906;9.140;2023-03-13T05:03:11;978.21;;;16.92;50.59
45071;BME280;30836;48.906;9.140;2023-03-13T05:04:11;978.21;;;17.03;50.22
45071;BME280;30836;48.906;9.140;2023-03-13T05:05:12;978.23;;;17.14;49.81
45071;BME280;30836;48.906;9.140;2023-03-13T05:06:12;978.21;;;17.21;49.80
45071;BME280;30836;48.906;9.140;2023-03-13T05:07:13;978.21;;;17.24;49.76
45071;BME280;30836;48.906;9.140;2023-03-13T05:08:13;978.15;;;17.26;49.94
45071;BME280;30836;48.906;9.140;2023-03-13T05:09:14;978.13;;;17.35;49.32
45071;BME280;30836;48.906;9.140;2023-03-13T05:10:14;978.11;;;17.43;49.47
45071;BME280;30836;48.906;9.140;2023-03-13T05:11:15;978.15;;;17.45;49.28
45071;BME280;30836;48.906;9.140;2023-03-13T05:12:15;978.09;;;17.52;49.08
45071;BME280;30836;48.906;9.140;2023-03-13T05:13:16;978.17;;;17.50;49.53
45071;BME280;30836;48.906;9.140;2023-03-13T05:14:16;978.19;;;17.42;49.73
45071;BME280;30836;48.906;9.140;2023-03-13T05:15:16;978.15;;;17.44;49.40
45071;BME280;30836;48.906;9.140;2023-03-13T05:16:17;978.15;;;17.45;49.67
45071;BME280;30836;48.906;9.140;2023-03-13T05:17:17;978.13;;;17.51;49.03
45071;BME280;30836;48.906;9.140;2023-03-13T05:18:18;978.13;;;17.62;49.09
45071;BME280;30836;48.906;9.140;2023-03-13T05:19:18;978.13;;;17.55;49.56
45071;BME280;30836;48.906;9.140;2023-03-13T05:20:19;978.15;;;17.53;49.33
45071;BME280;30836;48.906;9.140;2023-03-13T05:21:19;978.15;;;17.59;48.93
45071;BME280;30836;48.906;9.140;2023-03-13T05:22:20;978.15;;;17.68;48.76
45071;BME280;30836;48.906;9.140;2023-03-13T05:23:20;978.33;;;17.75;48.53
45071;BME280;30836;48.906;9.140;2023-03-13T05:24:20;978.25;;;17.67;49.62
45071;BME280;30836;48.906;9.140;2023-03-13T05:25:21;978.19;;;17.50;49.73
45071;BME280;30836;48.906;9.140;2023-03-13T05:26:21;978.21;;;17.43;49.70
45071;BME280;30836;48.906;9.140;2023-03-13T05:27:22;978.15;;;17.47;49.29
45071;BME280;30836;48.906;9.140;2023-03-13T05:28:22;978.15;;;17.61;48.91
45071;BME280;30836;48.906;9.140;2023-03-13T05:29:23;978.17;;;17.66;49.07
45071;BME280;30836;48.906;9.140;2023-03-13T05:30:23;978.15;;;17.68;48.94
45071;BME280;30836;48.906;9.140;2023-03-13T05:31:24;978.07;;;17.79;48.49
45071;BME280;30836;48.906;9.140;2023-03-13T05:32:24;978.07;;;17.83;48.63
45071;BME280;30836;48.906;9.140;2023-03-13T05:33:24;978.07;;;17.83;48.67
45071;BME280;30836;48.906;9.140;2023-03-13T05:34:25;978.05;;;17.86;48.60
45071;BME280;30836;48.906;9.140;2023-03-13T05:35:25;977.99;;;17.91;48.23
45071;BME280;30836;48.906;9.140;2023-03-13T05:36:26;978.03;;;18.01;47.99
45071;BME280;30836;48.906;9.140;2023-03-13T05:37:26;978.13;;;17.99;48.38
45071;BME280;30836;48.906;9.140;2023-03-13T05:38:26;978.05;;;17.90;48.49
45071;BME280;30836;48.906;9.140;2023-03-13T05:39:27;978.05;;;17.98;47.85
45071;BME280;30836;48.906;9.140;2023-03-13T05:40:27;978.03;;;18.08;47.73